createdAt,value
2023-04-22T00:01:32.456Z,15.20
2023-04-22T00:03:59.455Z,15.20
2023-04-22T00:06:26.592Z,15.20
2023-04-22T00:08:53.627Z,15.20
2023-04-22T00:11:20.691Z,15.20
2023-04-22T00:13:47.591Z,15.20
2023-04-22T00:16:14.686Z,15.10
2023-04-22T00:18:41.691Z,15.10
2023-04-22T00:21:08.797Z,15.10
2023-04-22T00:23:36.000Z,15.10
2023-04-22T00:26:03.358Z,15.10
2023-04-22T00:28:30.641Z,15.10
2023-04-22T00:30:58.824Z,15.10
2023-04-22T00:33:26.050Z,15.10
2023-04-22T00:35:54.657Z,15.10
2023-04-22T00:38:22.931Z,15.00
2023-04-22T00:40:49.873Z,15.00
2023-04-22T00:43:17.813Z,15.00
2023-04-22T00:45:45.346Z,15.00
2023-04-22T00:48:13.461Z,14.90
2023-04-22T00:50:40.647Z,14.90
2023-04-22T00:53:07.819Z,14.90
2023-04-22T00:55:35.276Z,14.90
2023-04-22T00:58:03.479Z,14.90
2023-04-22T01:00:30.939Z,14.90
2023-04-22T01:02:58.564Z,14.80
2023-04-22T01:05:28.818Z,14.80
2023-04-22T01:07:55.964Z,14.80
2023-04-22T01:10:23.175Z,14.80
2023-04-22T01:12:51.781Z,14.70
2023-04-22T01:15:19.015Z,14.80
2023-04-22T01:17:46.099Z,14.80
2023-04-22T01:20:13.970Z,14.80
2023-04-22T01:22:42.472Z,14.80
2023-04-22T01:25:11.318Z,14.70
2023-04-22T01:27:39.257Z,14.70
2023-04-22T01:30:07.471Z,14.80
2023-04-22T01:32:34.691Z,14.70
2023-04-22T01:35:01.828Z,14.70
2023-04-22T01:37:29.968Z,14.70
2023-04-22T01:39:58.841Z,14.60
2023-04-22T01:42:26.056Z,14.70
2023-04-22T01:44:53.028Z,14.60
2023-04-22T01:47:19.957Z,14.60
2023-04-22T01:49:47.223Z,14.60
2023-04-22T01:52:14.349Z,14.60
2023-04-22T01:54:41.773Z,14.60
2023-04-22T01:57:14.028Z,14.60
2023-04-22T01:59:41.911Z,14.60
2023-04-22T02:02:09.235Z,14.60
2023-04-22T02:04:36.557Z,14.60
2023-04-22T02:07:03.711Z,14.60
2023-04-22T02:09:33.482Z,14.60
2023-04-22T02:12:01.313Z,14.50
2023-04-22T02:14:28.484Z,14.60
2023-04-22T02:16:55.469Z,14.60
2023-04-22T02:19:22.481Z,14.50
2023-04-22T02:21:49.554Z,14.50
2023-04-22T02:24:16.678Z,14.50
2023-04-22T02:26:43.598Z,14.60
2023-04-22T02:29:10.520Z,14.50
2023-04-22T02:31:37.493Z,14.50
2023-04-22T02:34:05.224Z,14.50
2023-04-22T02:36:34.562Z,14.40
2023-04-22T02:39:03.677Z,14.40
2023-04-22T02:41:30.759Z,14.40
2023-04-22T02:43:57.841Z,14.40
2023-04-22T02:46:25.909Z,14.30
2023-04-22T02:48:53.021Z,14.30
2023-04-22T02:51:21.994Z,14.30
2023-04-22T02:53:48.910Z,14.30
2023-04-22T02:56:16.021Z,14.30
2023-04-22T02:58:43.267Z,14.20
2023-04-22T03:01:10.387Z,14.30
2023-04-22T03:03:37.779Z,14.20
2023-04-22T03:06:07.190Z,14.20
2023-04-22T03:08:34.220Z,14.20
2023-04-22T03:11:01.194Z,14.30
2023-04-22T03:13:28.161Z,14.20
2023-04-22T03:15:55.874Z,14.20
2023-04-22T03:18:22.901Z,14.20
2023-04-22T03:20:50.357Z,14.20
2023-04-22T03:23:18.922Z,14.20
2023-04-22T03:25:45.890Z,14.20
2023-04-22T03:28:13.074Z,14.20
2023-04-22T03:30:41.035Z,14.20
2023-04-22T03:33:08.149Z,14.20
2023-04-22T03:35:51.079Z,14.20
2023-04-22T03:38:18.210Z,14.20
2023-04-22T03:40:45.208Z,14.20
2023-04-22T03:43:38.037Z,14.20
2023-04-22T03:46:08.699Z,14.20
2023-04-22T03:48:39.828Z,14.10
2023-04-22T03:51:12.496Z,14.20
2023-04-22T03:53:41.307Z,14.10
2023-04-22T03:56:11.152Z,14.10
2023-04-22T03:58:44.152Z,14.20
2023-04-22T04:01:11.470Z,14.10
2023-04-22T04:03:39.533Z,14.10
2023-04-22T04:06:08.466Z,14.10
2023-04-22T04:08:36.767Z,14.10
2023-04-22T04:11:04.761Z,14.10
2023-04-22T04:13:32.547Z,14.10
2023-04-22T04:16:17.989Z,14.10
2023-04-22T04:18:51.951Z,14.10
2023-04-22T04:21:21.811Z,14.10
2023-04-22T04:23:51.502Z,14.10
2023-04-22T04:26:23.950Z,14.10
2023-04-22T04:28:56.133Z,14.10
2023-04-22T04:31:24.916Z,14.10
2023-04-22T04:33:53.057Z,14.10
2023-04-22T04:36:20.393Z,14.10
2023-04-22T04:38:48.875Z,14.10
2023-04-22T04:41:16.046Z,14.00
2023-04-22T04:43:46.367Z,14.00
2023-04-22T04:46:22.739Z,14.10
2023-04-22T04:48:51.648Z,14.00
2023-04-22T04:51:20.393Z,14.00
2023-04-22T04:53:57.332Z,14.00
2023-04-22T04:56:27.712Z,14.00
2023-04-22T04:58:55.256Z,14.00
2023-04-22T05:01:25.272Z,14.00
2023-04-22T05:03:53.225Z,14.00
2023-04-22T05:06:21.287Z,14.00
2023-04-22T05:09:02.602Z,14.00
2023-04-22T05:11:29.937Z,14.00
2023-04-22T05:13:58.554Z,14.00
2023-04-22T05:16:31.332Z,14.00
2023-04-22T05:18:58.937Z,14.00
2023-04-22T05:21:25.928Z,13.90
2023-04-22T05:23:52.935Z,13.90
2023-04-22T05:26:20.349Z,13.90
2023-04-22T05:28:49.810Z,13.90
2023-04-22T05:31:18.293Z,13.90
2023-04-22T05:33:45.432Z,13.90
2023-04-22T05:36:12.457Z,13.90
2023-04-22T05:38:39.597Z,14.00
2023-04-22T05:41:06.501Z,14.00
2023-04-22T05:43:33.809Z,14.00
2023-04-22T05:46:11.603Z,14.00
2023-04-22T05:48:40.787Z,14.10
2023-04-22T05:51:15.995Z,14.10
2023-04-22T05:53:42.955Z,14.10
2023-04-22T05:56:10.768Z,14.20
2023-04-22T05:58:38.044Z,14.20
2023-04-22T06:01:11.842Z,14.20
2023-04-22T06:03:55.538Z,14.30
2023-04-22T06:06:24.119Z,14.30
2023-04-22T06:08:51.105Z,14.40
2023-04-22T06:11:18.461Z,14.40
2023-04-22T06:13:45.402Z,14.50
2023-04-22T06:16:12.410Z,14.50
2023-04-22T06:18:39.524Z,14.60
2023-04-22T06:21:11.121Z,14.60
2023-04-22T06:23:38.125Z,14.70
2023-04-22T06:26:05.252Z,14.70
2023-04-22T06:28:33.378Z,14.80
2023-04-22T06:31:05.319Z,14.80
2023-04-22T06:33:32.707Z,14.80
2023-04-22T06:36:01.536Z,14.90
2023-04-22T06:38:31.492Z,14.90
2023-04-22T06:41:23.890Z,14.90
2023-04-22T06:43:53.364Z,15.00
2023-04-22T06:46:39.064Z,15.00
2023-04-22T06:49:25.032Z,15.00
2023-04-22T06:52:18.963Z,15.00
2023-04-22T06:54:46.083Z,15.10
2023-04-22T06:57:13.206Z,15.10
2023-04-22T06:59:40.545Z,15.10
2023-04-22T07:02:08.220Z,15.20
2023-04-22T07:04:38.795Z,15.20
2023-04-22T07:07:06.627Z,15.20
2023-04-22T07:09:33.961Z,15.20
2023-04-22T07:12:01.946Z,15.20
2023-04-22T07:14:30.802Z,15.30
2023-04-22T07:16:57.893Z,15.30
2023-04-22T07:19:25.502Z,15.30
2023-04-22T07:21:52.537Z,15.40
2023-04-22T07:24:19.523Z,15.40
2023-04-22T07:26:46.499Z,15.40
2023-04-22T07:29:13.457Z,15.50
2023-04-22T07:31:40.454Z,15.50
2023-04-22T07:34:07.767Z,15.50
2023-04-22T07:36:34.682Z,15.60
2023-04-22T07:39:01.681Z,15.60
2023-04-22T07:41:28.706Z,15.60
2023-04-22T07:43:55.732Z,15.70
2023-04-22T07:46:23.185Z,15.70
2023-04-22T07:48:50.426Z,15.80
2023-04-22T07:51:17.425Z,15.80
2023-04-22T07:53:44.377Z,15.90
2023-04-22T07:56:11.427Z,15.90
2023-04-22T07:58:38.362Z,15.90
2023-04-22T08:01:05.288Z,15.90
2023-04-22T08:03:32.431Z,16.00
2023-04-22T08:05:59.621Z,16.00
2023-04-22T08:08:26.651Z,16.10
2023-04-22T08:10:53.600Z,16.10
2023-04-22T08:13:20.650Z,16.10
2023-04-22T08:15:47.760Z,16.10
2023-04-22T08:18:14.748Z,16.20
2023-04-22T08:20:41.767Z,16.20
2023-04-22T08:23:08.737Z,16.20
2023-04-22T08:25:35.826Z,16.30
2023-04-22T08:28:03.407Z,16.40
2023-04-22T08:30:30.445Z,16.40
2023-04-22T08:32:57.454Z,16.50
2023-04-22T08:35:24.433Z,16.50
2023-04-22T08:37:51.367Z,16.60
2023-04-22T08:40:18.419Z,16.60
2023-04-22T08:42:45.404Z,16.70
2023-04-22T08:45:13.717Z,16.70
2023-04-22T08:47:41.303Z,16.80
2023-04-22T08:50:09.773Z,16.80
2023-04-22T08:52:37.200Z,16.90
2023-04-22T08:55:04.435Z,16.90
2023-04-22T08:57:31.986Z,16.90
2023-04-22T08:59:59.625Z,17.00
2023-04-22T09:02:29.001Z,17.00
2023-04-22T09:04:56.379Z,17.00
2023-04-22T09:07:26.840Z,17.00
2023-04-22T09:09:57.897Z,17.10
2023-04-22T09:12:28.536Z,17.10
2023-04-22T09:14:56.012Z,17.20
2023-04-22T09:17:33.260Z,17.20
2023-04-22T09:20:05.054Z,17.30
2023-04-22T09:22:41.171Z,17.30
2023-04-22T09:25:18.036Z,17.30
2023-04-22T09:27:49.815Z,17.40
2023-04-22T09:30:19.377Z,17.50
2023-04-22T09:33:00.978Z,17.50
2023-04-22T09:35:28.911Z,17.50
2023-04-22T09:37:56.301Z,17.60
2023-04-22T09:40:24.568Z,17.60
2023-04-22T09:42:53.236Z,17.60
2023-04-22T09:45:35.002Z,17.70
2023-04-22T09:48:12.080Z,17.80
2023-04-22T09:50:41.218Z,17.80
2023-04-22T09:53:12.441Z,17.80
2023-04-22T09:55:43.679Z,17.80
2023-04-22T09:58:12.807Z,17.80
2023-04-22T10:01:00.170Z,17.90
2023-04-22T10:03:27.110Z,17.90
2023-04-22T10:05:54.071Z,17.90
2023-04-22T10:08:21.061Z,18.00
2023-04-22T10:10:48.312Z,18.00
2023-04-22T10:13:15.247Z,18.00
2023-04-22T10:15:53.563Z,18.00
2023-04-22T10:18:26.239Z,18.00
2023-04-22T10:20:56.374Z,18.10
2023-04-22T10:23:24.829Z,18.10
2023-04-22T10:25:55.086Z,18.10
2023-04-22T10:28:23.569Z,18.00
2023-04-22T10:30:51.300Z,18.10
2023-04-22T10:33:21.198Z,18.10
2023-04-22T10:36:08.388Z,18.00
2023-04-22T10:38:40.849Z,18.00
2023-04-22T10:41:13.628Z,18.10
2023-04-22T10:43:42.104Z,18.10
2023-04-22T10:46:32.874Z,18.10
2023-04-22T10:49:07.060Z,18.10
2023-04-22T10:51:46.848Z,18.10
2023-04-22T10:54:27.987Z,18.10
2023-04-22T10:57:03.686Z,18.20
2023-04-22T10:59:41.533Z,18.20
2023-04-22T11:02:11.933Z,18.20
2023-04-22T11:04:39.647Z,18.20
2023-04-22T11:07:26.922Z,18.30
2023-04-22T11:10:01.636Z,18.30
2023-04-22T11:12:49.554Z,18.30
2023-04-22T11:15:22.334Z,18.30
2023-04-22T11:17:53.843Z,18.30
2023-04-22T11:20:21.819Z,18.30
2023-04-22T11:22:53.847Z,18.40
2023-04-22T11:25:21.811Z,18.50
2023-04-22T11:27:49.055Z,18.50
2023-04-22T11:30:19.330Z,18.60
2023-04-22T11:32:51.589Z,18.60
2023-04-22T11:35:20.737Z,18.70
2023-04-22T11:37:52.637Z,18.70
2023-04-22T11:40:30.658Z,18.80
2023-04-22T11:43:00.924Z,18.90
2023-04-22T11:45:29.754Z,18.90
2023-04-22T11:47:57.252Z,19.00
2023-04-22T11:50:28.627Z,19.00
2023-04-22T11:52:58.088Z,19.10
2023-04-22T11:55:30.778Z,19.10
2023-04-22T11:57:59.777Z,19.20
2023-04-22T12:00:33.169Z,19.20
2023-04-22T12:03:05.950Z,19.20
2023-04-22T12:05:35.035Z,19.20
2023-04-22T12:08:30.260Z,19.30
2023-04-22T12:10:59.421Z,19.30
2023-04-22T12:13:43.522Z,19.30
2023-04-22T12:16:12.620Z,19.40
2023-04-22T12:18:53.226Z,19.50
2023-04-22T12:21:24.971Z,19.50
2023-04-22T12:23:57.525Z,19.60
2023-04-22T12:26:27.277Z,19.60
2023-04-22T12:28:56.732Z,19.60
2023-04-22T12:31:24.898Z,19.60
2023-04-22T12:33:51.925Z,19.70
2023-04-22T12:36:22.324Z,19.80
2023-04-22T12:38:49.590Z,19.80
2023-04-22T12:41:16.585Z,19.90
2023-04-22T12:43:43.561Z,19.90
2023-04-22T12:46:10.649Z,20.00
2023-04-22T12:48:37.919Z,20.10
2023-04-22T12:51:06.571Z,20.10
2023-04-22T12:53:33.660Z,20.20
2023-04-22T12:56:00.837Z,20.10
2023-04-22T12:58:28.366Z,20.20
2023-04-22T13:00:55.385Z,20.10
2023-04-22T13:03:22.686Z,20.10
2023-04-22T13:05:49.913Z,20.10
2023-04-22T13:08:17.570Z,20.20
2023-04-22T13:10:44.544Z,20.20
2023-04-22T13:13:18.412Z,20.20
2023-04-22T13:15:47.375Z,20.20
2023-04-22T13:18:16.145Z,20.20
2023-04-22T13:20:43.204Z,20.30
2023-04-22T13:23:10.583Z,20.30
2023-04-22T13:25:37.794Z,20.30
2023-04-22T13:28:04.754Z,20.30
2023-04-22T13:30:31.699Z,20.30
2023-04-22T13:32:58.685Z,20.40
2023-04-22T13:35:25.757Z,20.40
2023-04-22T13:37:52.733Z,20.40
2023-04-22T13:40:19.692Z,20.40
2023-04-22T13:42:46.734Z,20.40
2023-04-22T13:45:13.688Z,20.50
2023-04-22T13:47:40.588Z,20.50
2023-04-22T13:50:09.084Z,20.60
2023-04-22T13:52:36.248Z,20.60
2023-04-22T13:55:03.794Z,20.70
2023-04-22T13:57:30.938Z,20.80
2023-04-22T14:00:00.638Z,20.90
2023-04-22T14:02:27.821Z,21.00
2023-04-22T14:04:54.873Z,21.10
2023-04-22T14:07:21.910Z,21.20
2023-04-22T14:09:48.781Z,21.30
2023-04-22T14:12:15.992Z,21.40
2023-04-22T14:14:43.095Z,21.50
2023-04-22T14:17:10.493Z,21.70
2023-04-22T14:19:39.365Z,21.70
2023-04-22T14:22:06.699Z,21.80
2023-04-22T14:24:33.814Z,21.90
2023-04-22T14:27:04.016Z,22.00
2023-04-22T14:29:31.826Z,22.10
2023-04-22T14:31:58.822Z,22.10
2023-04-22T14:34:27.201Z,22.10
2023-04-22T14:36:54.467Z,22.10
2023-04-22T14:39:21.510Z,22.10
2023-04-22T14:41:48.841Z,22.10
2023-04-22T14:44:16.054Z,22.20
2023-04-22T14:46:42.995Z,22.30
2023-04-22T14:49:10.071Z,22.30
2023-04-22T14:51:37.134Z,22.30
2023-04-22T14:54:04.631Z,22.40
2023-04-22T14:56:31.583Z,22.40
2023-04-22T14:58:58.507Z,22.40
2023-04-22T15:01:25.944Z,22.50
2023-04-22T15:03:53.303Z,22.50
2023-04-22T15:06:20.689Z,22.40
2023-04-22T15:08:47.708Z,22.40
2023-04-22T15:11:14.681Z,22.40
2023-04-22T15:13:41.595Z,22.40
2023-04-22T15:16:08.759Z,22.70
2023-04-22T15:18:36.075Z,23.20
2023-04-22T15:21:05.668Z,23.70
2023-04-22T15:23:32.587Z,24.20
2023-04-22T15:25:59.566Z,24.70
2023-04-22T15:28:26.498Z,24.80
2023-04-22T15:30:53.505Z,25.10
2023-04-22T15:33:20.384Z,25.20
2023-04-22T15:35:49.453Z,25.30
2023-04-22T15:38:17.077Z,25.20
2023-04-22T15:40:44.234Z,24.90
2023-04-22T15:43:11.329Z,24.70
2023-04-22T15:45:38.275Z,24.70
2023-04-22T15:48:05.948Z,24.70
2023-04-22T15:50:32.954Z,25.00
2023-04-22T15:52:59.862Z,25.30
2023-04-22T15:55:26.794Z,25.50
2023-04-22T15:57:53.708Z,25.60
2023-04-22T16:00:21.220Z,25.50
2023-04-22T16:02:55.381Z,25.50
2023-04-22T16:05:24.827Z,25.30
2023-04-22T16:07:53.342Z,25.20
2023-04-22T16:10:21.182Z,25.00
2023-04-22T16:12:49.550Z,24.70
2023-04-22T16:15:16.623Z,24.40
2023-04-22T16:17:44.292Z,24.20
2023-04-22T16:20:11.907Z,23.90
2023-04-22T16:22:38.964Z,23.70
2023-04-22T16:25:06.616Z,23.40
2023-04-22T16:27:33.580Z,23.30
2023-04-22T16:30:00.710Z,23.20
2023-04-22T16:32:27.701Z,23.10
2023-04-22T16:34:54.705Z,23.00
2023-04-22T16:37:21.601Z,22.90
2023-04-22T16:39:49.304Z,22.80
2023-04-22T16:42:16.189Z,22.70
2023-04-22T16:44:43.263Z,22.60
2023-04-22T16:47:10.277Z,22.50
2023-04-22T16:49:37.263Z,22.50
2023-04-22T16:52:04.213Z,22.40
2023-04-22T16:54:31.153Z,22.30
2023-04-22T16:56:58.134Z,22.20
2023-04-22T16:59:25.124Z,22.20
2023-04-22T17:01:52.212Z,22.00
2023-04-22T17:04:19.380Z,21.90
2023-04-22T17:06:46.465Z,21.80
2023-04-22T17:09:13.395Z,21.80
2023-04-22T17:11:40.449Z,21.70
2023-04-22T17:14:07.660Z,21.60
2023-04-22T17:16:34.746Z,21.60
2023-04-22T17:19:01.774Z,21.50
2023-04-22T17:21:28.878Z,21.50
2023-04-22T17:23:56.159Z,21.40
2023-04-22T17:26:23.106Z,21.40
2023-04-22T17:28:49.988Z,21.30
2023-04-22T17:31:17.842Z,21.20
2023-04-22T17:33:44.788Z,21.10
2023-04-22T17:36:11.908Z,21.00
2023-04-22T17:38:40.979Z,21.00
2023-04-22T17:41:07.955Z,20.90
2023-04-22T17:43:34.976Z,20.90
2023-04-22T17:46:02.030Z,20.80
2023-04-22T17:48:28.931Z,20.80
2023-04-22T17:50:55.861Z,20.70
2023-04-22T17:53:22.823Z,20.60
2023-04-22T17:55:49.779Z,20.60
2023-04-22T17:58:16.684Z,20.60
2023-04-22T18:00:43.825Z,20.50
2023-04-22T18:03:11.160Z,20.50
2023-04-22T18:05:44.608Z,20.40
2023-04-22T18:08:11.664Z,20.40
2023-04-22T18:10:38.971Z,20.30
2023-04-22T18:13:06.792Z,20.30
2023-04-22T18:15:33.750Z,20.30
2023-04-22T18:18:01.323Z,20.20
2023-04-22T18:20:28.474Z,20.20
2023-04-22T18:22:56.512Z,20.20
2023-04-22T18:25:24.294Z,20.10
2023-04-22T18:27:54.992Z,20.10
2023-04-22T18:30:23.318Z,20.00
2023-04-22T18:32:51.682Z,20.00
2023-04-22T18:35:20.015Z,20.00
2023-04-22T18:37:47.603Z,20.00
2023-04-22T18:40:14.901Z,19.90
2023-04-22T18:42:44.714Z,19.90
2023-04-22T18:45:12.443Z,19.90
2023-04-22T18:47:39.882Z,19.90
2023-04-22T18:50:07.693Z,19.90
2023-04-22T18:52:34.997Z,19.80
2023-04-22T18:55:02.268Z,19.80
2023-04-22T18:57:29.374Z,19.80
2023-04-22T18:59:56.447Z,19.70
2023-04-22T19:02:23.405Z,19.70
2023-04-22T19:04:51.304Z,19.70
2023-04-22T19:07:18.287Z,19.70
2023-04-22T19:09:45.480Z,19.70
2023-04-22T19:12:14.814Z,19.70
2023-04-22T19:14:42.747Z,19.70
2023-04-22T19:17:10.101Z,19.70
2023-04-22T19:19:37.038Z,19.60
2023-04-22T19:22:03.985Z,19.60
2023-04-22T19:24:33.596Z,19.60
2023-04-22T19:27:03.075Z,19.60
2023-04-22T19:29:30.152Z,19.60
2023-04-22T19:31:57.353Z,19.60
2023-04-22T19:34:24.474Z,19.60
2023-04-22T19:36:51.443Z,19.60
2023-04-22T19:39:18.434Z,19.60
2023-04-22T19:41:45.648Z,19.60
2023-04-22T19:44:12.841Z,19.60
2023-04-22T19:46:39.920Z,19.60
2023-04-22T19:49:07.221Z,19.50
2023-04-22T19:51:35.253Z,19.50
2023-04-22T19:54:02.947Z,19.50
2023-04-22T19:56:30.025Z,19.50
2023-04-22T19:58:57.400Z,19.50
2023-04-22T20:01:24.654Z,19.50
2023-04-22T20:03:52.229Z,19.50
2023-04-22T20:06:22.879Z,19.40
2023-04-22T20:08:53.565Z,19.50
2023-04-22T20:11:21.421Z,19.40
2023-04-22T20:13:49.720Z,19.40
2023-04-22T20:16:19.321Z,19.40
2023-04-22T20:18:46.773Z,19.40
2023-04-22T20:21:14.668Z,19.30
2023-04-22T20:23:42.655Z,19.30
2023-04-22T20:26:10.395Z,19.30
2023-04-22T20:28:48.833Z,19.30
2023-04-22T20:31:20.453Z,19.30
2023-04-22T20:33:48.353Z,19.30
2023-04-22T20:36:16.896Z,19.30
2023-04-22T20:38:48.803Z,19.30
2023-04-22T20:41:18.821Z,19.30
2023-04-22T20:43:46.517Z,19.30
2023-04-22T20:46:13.723Z,19.30
2023-04-22T20:48:41.147Z,19.30
2023-04-22T20:51:08.232Z,19.30
2023-04-22T20:53:35.447Z,19.30
2023-04-22T20:56:02.965Z,19.30
2023-04-22T20:58:30.084Z,19.30
2023-04-22T21:00:57.118Z,19.30
2023-04-22T21:03:26.680Z,19.30
2023-04-22T21:05:54.085Z,19.20
2023-04-22T21:08:23.485Z,19.20
2023-04-22T21:10:52.901Z,19.20
2023-04-22T21:13:20.123Z,19.20
2023-04-22T21:16:01.253Z,19.20
2023-04-22T21:18:29.427Z,19.20
2023-04-22T21:20:57.117Z,19.20
2023-04-22T21:23:25.405Z,19.10
2023-04-22T21:25:55.557Z,19.10
2023-04-22T21:28:23.275Z,19.10
2023-04-22T21:30:50.564Z,19.10
2023-04-22T21:33:17.488Z,19.10
2023-04-22T21:35:44.526Z,19.00
2023-04-22T21:38:11.734Z,19.00
2023-04-22T21:40:38.669Z,19.00
2023-04-22T21:43:06.175Z,18.90
2023-04-22T21:45:33.458Z,18.90
2023-04-22T21:48:00.709Z,18.90
2023-04-22T21:50:30.130Z,18.90
2023-04-22T21:52:57.648Z,18.90
2023-04-22T21:55:24.667Z,18.80
2023-04-22T21:57:51.760Z,18.80
2023-04-22T22:00:19.277Z,18.80
2023-04-22T22:02:47.367Z,18.80
2023-04-22T22:05:15.716Z,18.70
2023-04-22T22:07:43.479Z,18.70
2023-04-22T22:10:16.274Z,18.70
2023-04-22T22:12:43.189Z,18.70
2023-04-22T22:15:11.436Z,18.70
2023-04-22T22:17:40.266Z,18.70
2023-04-22T22:20:12.005Z,18.60
2023-04-22T22:22:43.682Z,18.60
2023-04-22T22:25:13.622Z,18.60
2023-04-22T22:27:45.497Z,18.60
2023-04-22T22:30:13.650Z,18.50
2023-04-22T22:32:40.902Z,18.50
2023-04-22T22:35:08.482Z,18.50
2023-04-22T22:37:35.818Z,18.50
2023-04-22T22:40:02.989Z,18.50
2023-04-22T22:42:29.985Z,18.40
2023-04-22T22:44:57.597Z,18.40
2023-04-22T22:47:25.651Z,18.40
2023-04-22T22:49:53.491Z,18.30
2023-04-22T22:52:20.464Z,18.30
2023-04-22T22:54:48.778Z,18.30
2023-04-22T22:57:16.331Z,18.30
2023-04-22T22:59:43.446Z,18.30
2023-04-22T23:02:10.822Z,18.30
2023-04-22T23:04:39.430Z,18.20
2023-04-22T23:07:06.718Z,18.20
2023-04-22T23:09:33.628Z,18.20
2023-04-22T23:12:02.658Z,18.20
2023-04-22T23:14:30.213Z,18.20
2023-04-22T23:16:57.305Z,18.20
2023-04-22T23:19:25.668Z,18.10
2023-04-22T23:21:54.464Z,18.10
2023-04-22T23:24:21.524Z,18.10
2023-04-22T23:26:48.744Z,18.00
2023-04-22T23:29:16.541Z,18.00
2023-04-22T23:31:44.256Z,18.00
2023-04-22T23:34:11.896Z,18.00
2023-04-22T23:36:39.270Z,18.00
2023-04-22T23:39:06.794Z,18.00
2023-04-22T23:41:34.033Z,17.90
2023-04-22T23:44:01.048Z,17.90
2023-04-22T23:46:28.213Z,17.90
2023-04-22T23:48:55.556Z,17.90
2023-04-22T23:51:22.626Z,17.80
2023-04-22T23:53:49.560Z,17.80
2023-04-22T23:56:21.052Z,17.80
2023-04-22T23:58:49.121Z,17.70
